Monday, April 24, 2017, 4:53 PM EDT
Back to Local

KBGR, Bangor Int'l Airport

Location: Bangor, ME, United States Lat: 44.8
Local Time: 4:53 PM EDT (20:53 GMT) Lon: -68.817
Time Zone: US/Eastern Elev: 193 ft

Show me the last for .
Show Decoded

2017-04-24 15:53 METAR KBGR 241953Z 36003KT 10SM SCT080 13/M02 A3019 RMK AO2 SLP223 T01331017 =
2017-04-24 14:53 METAR KBGR 241853Z 33004KT 10SM SCT075 13/M03 A3019 RMK AO2 SLP224 T01331028 =
2017-04-24 13:53 METAR KBGR 241753Z 03011KT 10SM SCT070 BKN100 BKN200 12/M04 A3021 RMK AO2 SLP230
                 T01221039 10128 20072 53005 =
2017-04-24 12:53 METAR KBGR 241653Z 33008KT 10SM FEW075 BKN090 BKN200 13/M02 A3020 RMK AO2 SLP226
                 T01281017 =
2017-04-24 11:53 METAR KBGR 241553Z 33008KT 10SM SCT095 BKN250 12/M03 A3020 RMK AO2 SLP227
                 T01171033 =
2017-04-24 10:53 METAR KBGR 241453Z 34011KT 10SM SCT095 SCT250 12/M03 A3019 RMK AO2 SLP225
                 T01171028 51014 =
2017-04-24 09:53 METAR KBGR 241353Z 33007KT 300V010 10SM FEW075 SCT250 11/02 A3018 RMK AO2 SLP221
                 T01110017 =
2017-04-24 08:53 METAR KBGR 241253Z 35007KT 10SM FEW055 SCT250 09/03 A3018 RMK AO2 SLP219
                 T00890033 =
2017-04-24 07:53 METAR KBGR 241153Z 00000KT 10SM SCT150 BKN250 07/04 A3015 RMK AO2 SLP211
                 T00670044 10067 20000 53026 =
2017-04-24 06:53 METAR KBGR 241053Z 00000KT 10SM SCT160 BKN250 04/03 A3012 RMK AO2 SLP201
                 T00390028 =
2017-04-24 05:53 METAR KBGR 240953Z 00000KT 10SM BKN250 02/01 A3011 RMK AO2 SLP195 T00170011 =
2017-04-24 04:53 METAR KBGR 240853Z 16003KT 10SM CLR 02/01 A3008 RMK AO2 SLP184 T00170011 53015 =
2017-04-24 03:53 METAR KBGR 240753Z COR 00000KT 10SM CLR 01/01 A3005 =
2017-04-24 02:53 METAR KBGR 240653Z 19003KT 10SM CLR 03/02 A3004 RMK AO2 SLP173 T00280017 =
2017-04-24 01:53 METAR KBGR 240553Z 33009KT 10SM CLR 04/03 A3003 RMK AO2 SLP169 T00390028 10072
                 20039 53001 =
2017-04-24 00:53 METAR KBGR 240453Z 20008KT 10SM CLR 05/03 A3001 RMK AO2 SLP162 T00500033
                 401560022 =
2017-04-23 23:53 METAR KBGR 240353Z 18010KT 10SM CLR 05/03 A3001 RMK AO2 SLP161 T00500033 =
2017-04-23 22:53 METAR KBGR 240253Z 18010KT 10SM CLR 05/03 A3003 RMK AO2 SLP169 T00500033 51011 =
2017-04-23 21:53 METAR KBGR 240153Z 19009KT 10SM CLR 06/03 A3002 RMK AO2 SLP167 T00560033 =
2017-04-23 20:53 METAR KBGR 240053Z 18010KT 10SM FEW250 06/03 A3001 RMK AO2 SLP164 T00610033 =
2017-04-23 19:53 METAR KBGR 232353Z 17011G17KT 10SM FEW250 07/03 A2999 RMK AO2 SLP158 T00720033
                 10156 20072 53007 =
2017-04-23 18:53 METAR KBGR 232253Z 18008KT 10SM FEW250 10/04 A2998 RMK AO2 SLP153 T01000039 =
2017-04-23 17:53 METAR KBGR 232153Z 19010KT 10SM FEW250 12/04 A2998 RMK AO2 SLP151 T01220044 =

Support USWX by starting your Amazon purchase here.